createdAt,value
2022-11-10T00:00:24.316Z,10.05
2022-11-10T00:02:52.256Z,10.11
2022-11-10T00:05:20.252Z,10.05
2022-11-10T00:07:48.344Z,10.04
2022-11-10T00:10:16.504Z,10.04
2022-11-10T00:12:46.703Z,10.03
2022-11-10T00:15:32.344Z,10.02
2022-11-10T00:18:02.728Z,10.03
2022-11-10T00:20:30.737Z,10.01
2022-11-10T00:22:58.711Z,10.03
2022-11-10T00:25:27.632Z,10.00
2022-11-10T00:27:59.566Z,9.99
2022-11-10T00:30:27.569Z,9.95
2022-11-10T00:32:55.621Z,9.90
2022-11-10T00:35:23.559Z,9.89
2022-11-10T00:37:51.928Z,9.85
2022-11-10T00:40:20.265Z,9.87
2022-11-10T00:42:48.227Z,9.76
2022-11-10T00:45:17.838Z,9.71
2022-11-10T00:47:47.003Z,9.66
2022-11-10T00:50:15.334Z,9.61
2022-11-10T00:52:43.331Z,9.57
2022-11-10T00:55:11.327Z,9.60
2022-11-10T00:57:39.314Z,9.58
2022-11-10T01:00:08.673Z,9.52
2022-11-10T01:02:38.005Z,9.53
2022-11-10T01:05:06.564Z,9.48
2022-11-10T01:07:34.532Z,9.41
2022-11-10T01:10:02.527Z,9.32
2022-11-10T01:12:31.083Z,9.28
2022-11-10T01:14:59.039Z,9.23
2022-11-10T01:17:27.097Z,9.18
2022-11-10T01:19:56.468Z,9.14
2022-11-10T01:22:24.479Z,9.11
2022-11-10T01:24:52.464Z,9.09
2022-11-10T01:27:20.621Z,9.05
2022-11-10T01:29:48.586Z,9.10
2022-11-10T01:32:16.747Z,9.11
2022-11-10T01:34:44.739Z,9.08
2022-11-10T01:37:14.054Z,9.04
2022-11-10T01:39:42.060Z,9.03
2022-11-10T01:42:10.022Z,8.99
2022-11-10T01:44:37.988Z,8.93
2022-11-10T01:47:06.008Z,8.92
2022-11-10T01:49:35.899Z,8.88
2022-11-10T01:52:08.974Z,8.81
2022-11-10T01:54:41.967Z,8.78
2022-11-10T01:57:13.680Z,8.73
2022-11-10T01:59:47.760Z,8.72
2022-11-10T02:02:22.774Z,8.66
2022-11-10T02:04:53.123Z,8.67
2022-11-10T02:07:23.361Z,8.60
2022-11-10T02:09:54.140Z,8.57
2022-11-10T02:12:37.073Z,8.54
2022-11-10T02:15:06.224Z,8.54
2022-11-10T02:17:34.587Z,8.51
2022-11-10T02:20:05.754Z,8.50
2022-11-10T02:22:35.249Z,8.51
2022-11-10T02:25:03.531Z,8.47
2022-11-10T02:27:31.777Z,8.43
2022-11-10T02:30:00.200Z,8.44
2022-11-10T02:32:28.652Z,8.40
2022-11-10T02:34:56.637Z,8.40
2022-11-10T02:37:24.607Z,8.34
2022-11-10T02:39:53.944Z,8.32
2022-11-10T02:42:22.069Z,8.33
2022-11-10T02:44:50.078Z,8.34
2022-11-10T02:47:18.051Z,8.33
2022-11-10T02:49:46.081Z,8.29
2022-11-10T02:52:14.053Z,8.25
2022-11-10T02:54:42.048Z,8.22
2022-11-10T02:57:11.355Z,8.19
2022-11-10T02:59:39.296Z,8.20
2022-11-10T03:02:07.270Z,8.16
2022-11-10T03:04:35.275Z,8.14
2022-11-10T03:07:03.277Z,8.11
2022-11-10T03:09:31.243Z,8.12
2022-11-10T03:11:59.170Z,8.10
2022-11-10T03:17:03.581Z,8.04
2022-11-10T03:19:31.506Z,8.03
2022-11-10T03:21:59.451Z,8.02
2022-11-10T03:24:27.425Z,8.03
2022-11-10T03:26:55.366Z,8.00
2022-11-10T03:29:23.352Z,7.98
2022-11-10T03:31:51.330Z,7.97
2022-11-10T03:34:20.636Z,7.94
2022-11-10T03:36:48.601Z,7.92
2022-11-10T03:39:16.593Z,7.90
2022-11-10T03:41:44.559Z,7.89
2022-11-10T03:44:12.468Z,7.88
2022-11-10T03:46:43.417Z,7.88
2022-11-10T03:49:11.604Z,7.82
2022-11-10T03:51:40.963Z,7.81
2022-11-10T03:54:08.958Z,7.80
2022-11-10T03:56:36.900Z,7.76
2022-11-10T03:59:04.855Z,7.77
2022-11-10T04:01:32.841Z,7.76
2022-11-10T04:04:00.824Z,7.77
2022-11-10T04:06:46.474Z,7.75
2022-11-10T04:09:15.852Z,7.75
2022-11-10T04:12:01.376Z,7.53
2022-11-10T04:14:47.008Z,7.71
2022-11-10T04:17:14.989Z,7.69
2022-11-10T04:19:42.939Z,7.72
2022-11-10T04:22:31.045Z,7.68
2022-11-10T04:25:00.365Z,7.70
2022-11-10T04:27:28.373Z,7.72
2022-11-10T04:29:56.348Z,7.72
2022-11-10T04:32:24.351Z,7.72
2022-11-10T04:34:52.379Z,7.75
2022-11-10T04:37:20.372Z,7.80
2022-11-10T04:39:48.325Z,7.83
2022-11-10T04:42:17.626Z,7.88
2022-11-10T04:44:45.547Z,7.93
2022-11-10T04:47:13.537Z,7.96
2022-11-10T04:49:41.457Z,8.02
2022-11-10T04:52:09.390Z,8.05
2022-11-10T04:54:37.368Z,8.04
2022-11-10T04:57:05.365Z,8.02
2022-11-10T04:59:34.740Z,7.98
2022-11-10T05:02:02.760Z,8.03
2022-11-10T05:04:30.770Z,8.04
2022-11-10T05:06:58.804Z,8.09
2022-11-10T05:09:26.809Z,8.10
2022-11-10T05:11:54.780Z,8.09
2022-11-10T05:14:22.782Z,8.09
2022-11-10T05:16:52.497Z,8.06
2022-11-10T05:19:20.479Z,8.07
2022-11-10T05:21:48.437Z,8.13
2022-11-10T05:24:16.416Z,8.09
2022-11-10T05:26:45.029Z,8.09
2022-11-10T05:29:12.989Z,8.09
2022-11-10T05:31:40.945Z,8.12
2022-11-10T05:34:10.275Z,8.11
2022-11-10T05:36:38.217Z,8.16
2022-11-10T05:39:06.229Z,8.18
2022-11-10T05:41:34.172Z,8.16
2022-11-10T05:44:02.137Z,8.17
2022-11-10T05:46:31.461Z,8.14
2022-11-10T05:48:59.390Z,8.17
2022-11-10T05:51:28.694Z,8.14
2022-11-10T05:53:56.653Z,8.14
2022-11-10T05:56:24.593Z,8.04
2022-11-10T05:58:52.538Z,8.16
2022-11-10T06:01:20.476Z,8.18
2022-11-10T06:03:48.425Z,8.20
2022-11-10T06:06:16.456Z,8.20
2022-11-10T06:08:45.816Z,8.22
2022-11-10T06:11:14.090Z,8.25
2022-11-10T06:13:42.041Z,8.30
2022-11-10T06:16:10.132Z,8.27
2022-11-10T06:18:38.047Z,8.26
2022-11-10T06:21:06.293Z,8.28
2022-11-10T06:23:34.212Z,8.25
2022-11-10T06:26:03.525Z,8.22
2022-11-10T06:28:31.481Z,8.23
2022-11-10T06:30:59.507Z,8.25
2022-11-10T06:33:27.692Z,8.22
2022-11-10T06:35:55.624Z,8.23
2022-11-10T06:38:23.546Z,8.24
2022-11-10T06:40:51.548Z,8.23
2022-11-10T06:43:21.243Z,8.28
2022-11-10T06:45:49.501Z,8.27
2022-11-10T06:48:17.535Z,8.25
2022-11-10T06:50:45.514Z,8.24
2022-11-10T06:53:26.801Z,8.26
2022-11-10T06:55:55.615Z,8.06
2022-11-10T06:58:24.949Z,8.20
2022-11-10T07:00:52.984Z,8.19
2022-11-10T07:03:21.312Z,8.21
2022-11-10T07:05:49.411Z,8.21
2022-11-10T07:08:17.792Z,8.20
2022-11-10T07:10:46.767Z,8.19
2022-11-10T07:13:14.698Z,8.20
2022-11-10T07:15:44.081Z,8.18
2022-11-10T07:18:12.087Z,8.18
2022-11-10T07:20:40.266Z,8.20
2022-11-10T07:23:09.363Z,8.18
2022-11-10T07:25:39.172Z,8.21
2022-11-10T07:28:10.369Z,8.20
2022-11-10T07:30:39.030Z,8.26
2022-11-10T07:33:12.036Z,8.25
2022-11-10T07:35:40.411Z,8.31
2022-11-10T07:38:10.412Z,8.37
2022-11-10T07:40:38.791Z,8.45
2022-11-10T07:43:06.749Z,8.44
2022-11-10T07:45:34.736Z,8.47
2022-11-10T07:48:03.100Z,8.50
2022-11-10T07:50:33.805Z,8.56
2022-11-10T07:53:06.788Z,8.57
2022-11-10T07:55:35.490Z,8.60
2022-11-10T07:58:03.423Z,8.58
2022-11-10T08:00:31.863Z,8.58
2022-11-10T08:03:04.692Z,8.65
2022-11-10T08:05:34.704Z,8.63
2022-11-10T08:08:02.932Z,8.46
2022-11-10T08:10:31.643Z,8.75
2022-11-10T08:13:01.560Z,8.78
2022-11-10T08:15:30.938Z,8.85
2022-11-10T08:18:02.569Z,8.85
2022-11-10T08:20:31.574Z,8.95
2022-11-10T08:23:02.773Z,8.99
2022-11-10T08:25:35.131Z,8.84
2022-11-10T08:28:05.894Z,8.99
2022-11-10T08:30:35.160Z,9.04
2022-11-10T08:33:04.886Z,9.11
2022-11-10T08:35:36.301Z,9.14
2022-11-10T08:38:10.065Z,9.23
2022-11-10T08:40:39.115Z,9.21
2022-11-10T08:43:08.524Z,9.28
2022-11-10T08:45:36.658Z,9.37
2022-11-10T08:48:06.643Z,9.40
2022-11-10T08:50:35.551Z,9.44
2022-11-10T08:53:05.044Z,9.49
2022-11-10T08:55:34.427Z,9.52
2022-11-10T08:58:03.675Z,9.54
2022-11-10T09:00:33.033Z,9.65
2022-11-10T09:03:05.576Z,9.65
2022-11-10T09:05:33.677Z,9.68
2022-11-10T09:08:01.734Z,9.68
2022-11-10T09:10:29.756Z,9.72
2022-11-10T09:13:01.602Z,9.79
2022-11-10T09:15:29.985Z,9.87
2022-11-10T09:17:58.704Z,9.95
2022-11-10T09:20:27.726Z,9.98
2022-11-10T09:22:56.042Z,10.03
2022-11-10T09:25:24.505Z,10.09
2022-11-10T09:27:52.451Z,10.17
2022-11-10T09:30:22.668Z,10.21
2022-11-10T09:32:54.547Z,10.26
2022-11-10T09:35:22.848Z,10.24
2022-11-10T09:37:50.859Z,10.17
2022-11-10T09:40:21.576Z,10.17
2022-11-10T09:42:49.996Z,10.18
2022-11-10T09:45:26.465Z,10.18
2022-11-10T09:48:01.389Z,10.21
2022-11-10T09:50:38.807Z,10.37
2022-11-10T09:53:12.848Z,10.48
2022-11-10T09:55:45.591Z,10.64
2022-11-10T09:58:15.158Z,10.75
2022-11-10T10:00:51.879Z,10.69
2022-11-10T10:03:26.403Z,10.64
2022-11-10T10:06:07.952Z,10.63
2022-11-10T10:08:47.148Z,10.59
2022-11-10T10:11:30.802Z,10.56
2022-11-10T10:14:14.681Z,10.60
2022-11-10T10:16:51.633Z,10.64
2022-11-10T10:19:28.163Z,10.66
2022-11-10T10:22:14.264Z,10.60
2022-11-10T10:24:42.334Z,10.59
2022-11-10T10:27:26.077Z,10.64
2022-11-10T10:29:54.592Z,10.62
2022-11-10T10:32:24.305Z,10.67
2022-11-10T10:34:52.904Z,10.69
2022-11-10T10:37:26.053Z,10.72
2022-11-10T10:39:55.902Z,10.89
2022-11-10T10:42:32.157Z,11.04
2022-11-10T10:45:22.453Z,11.13
2022-11-10T10:47:54.189Z,11.22
2022-11-10T10:50:29.344Z,11.24
2022-11-10T10:53:14.828Z,11.11
2022-11-10T10:55:53.874Z,11.14
2022-11-10T10:58:26.224Z,11.23
2022-11-10T11:01:00.747Z,11.22
2022-11-10T11:03:38.881Z,11.28
2022-11-10T11:06:19.458Z,11.33
2022-11-10T11:08:59.380Z,11.37
2022-11-10T11:11:30.514Z,11.39
2022-11-10T11:14:21.419Z,11.49
2022-11-10T11:16:51.519Z,11.49
2022-11-10T11:19:23.468Z,11.53
2022-11-10T11:22:16.416Z,11.52
2022-11-10T11:24:52.431Z,11.46
2022-11-10T11:27:26.593Z,11.42
2022-11-10T11:30:09.326Z,11.45
2022-11-10T11:33:08.077Z,11.44
2022-11-10T11:35:46.590Z,11.50
2022-11-10T11:38:17.007Z,11.59
2022-11-10T11:40:49.331Z,11.60
2022-11-10T11:43:56.290Z,11.66
2022-11-10T11:46:32.518Z,11.81
2022-11-10T11:49:19.810Z,11.90
2022-11-10T11:51:58.901Z,11.91
2022-11-10T11:54:40.935Z,11.89
2022-11-10T11:57:23.914Z,11.80
2022-11-10T12:00:04.036Z,11.89
2022-11-10T12:02:52.751Z,11.99
2022-11-10T12:05:36.548Z,12.01
2022-11-10T12:08:15.019Z,11.98
2022-11-10T12:10:52.732Z,12.09
2022-11-10T12:13:36.388Z,12.03
2022-11-10T12:16:12.733Z,11.97
2022-11-10T12:18:49.872Z,11.96
2022-11-10T12:21:25.601Z,11.90
2022-11-10T12:24:26.255Z,11.96
2022-11-10T12:26:59.401Z,11.78
2022-11-10T12:29:33.522Z,11.77
2022-11-10T12:32:10.590Z,11.84
2022-11-10T12:34:43.918Z,11.75
2022-11-10T12:37:24.881Z,11.75
2022-11-10T12:40:02.715Z,11.65
2022-11-10T12:42:33.796Z,11.65
2022-11-10T12:45:05.336Z,11.65
2022-11-10T12:47:39.776Z,11.63
2022-11-10T12:50:26.245Z,11.58
2022-11-10T12:52:57.486Z,11.62
2022-11-10T12:55:32.873Z,11.60
2022-11-10T12:58:01.948Z,11.63
2022-11-10T13:00:33.065Z,11.61
2022-11-10T13:03:01.275Z,11.63
2022-11-10T13:05:33.175Z,11.59
2022-11-10T13:08:23.056Z,11.58
2022-11-10T13:10:56.674Z,11.57
2022-11-10T13:13:26.067Z,11.57
2022-11-10T13:15:56.842Z,11.60
2022-11-10T13:19:00.492Z,11.63
2022-11-10T13:22:05.936Z,11.59
2022-11-10T13:24:36.003Z,11.61
2022-11-10T13:27:10.757Z,11.61
2022-11-10T13:29:55.974Z,11.61
2022-11-10T13:32:30.161Z,11.60
2022-11-10T13:35:27.930Z,11.60
2022-11-10T13:37:57.446Z,11.58
2022-11-10T13:40:32.555Z,11.57
2022-11-10T13:43:27.682Z,11.56
2022-11-10T13:46:06.889Z,11.57
2022-11-10T13:49:15.175Z,11.58
2022-11-10T13:51:46.481Z,11.56
2022-11-10T13:54:36.861Z,11.53
2022-11-10T13:57:18.452Z,11.56
2022-11-10T13:59:52.986Z,11.57
2022-11-10T14:03:01.999Z,11.59
2022-11-10T14:06:06.006Z,11.58
2022-11-10T14:08:47.254Z,11.58
2022-11-10T14:11:22.144Z,11.63
2022-11-10T14:13:56.592Z,11.64
2022-11-10T14:16:28.443Z,11.68
2022-11-10T14:19:02.567Z,11.70
2022-11-10T14:21:37.330Z,11.69
2022-11-10T14:24:15.445Z,11.65
2022-11-10T14:26:49.126Z,11.72
2022-11-10T14:29:32.306Z,11.76
2022-11-10T14:32:04.123Z,11.77
2022-11-10T14:34:41.959Z,11.77
2022-11-10T14:37:16.588Z,11.81
2022-11-10T14:39:44.952Z,11.81
2022-11-10T14:42:19.812Z,11.79
2022-11-10T14:44:48.623Z,11.81
2022-11-10T14:47:26.479Z,11.84
2022-11-10T14:50:09.020Z,11.81
2022-11-10T14:52:41.252Z,11.81
2022-11-10T14:55:15.174Z,11.82
2022-11-10T14:57:47.305Z,11.83
2022-11-10T15:00:20.494Z,11.79
2022-11-10T15:02:50.173Z,11.76
2022-11-10T15:05:18.396Z,11.76
2022-11-10T15:07:46.967Z,11.73
2022-11-10T15:10:18.578Z,11.73
2022-11-10T15:12:59.308Z,11.78
2022-11-10T15:15:27.342Z,11.74
2022-11-10T15:17:56.741Z,11.74
2022-11-10T15:20:33.877Z,11.74
2022-11-10T15:23:03.916Z,11.78
2022-11-10T15:25:35.548Z,11.74
2022-11-10T15:28:07.096Z,11.71
2022-11-10T15:30:35.093Z,11.73
2022-11-10T15:33:11.657Z,11.73
2022-11-10T15:35:39.681Z,11.70
2022-11-10T15:38:23.761Z,11.73
2022-11-10T15:40:53.670Z,11.73
2022-11-10T15:43:28.423Z,11.74
2022-11-10T15:45:59.715Z,11.75
2022-11-10T15:48:36.583Z,11.76
2022-11-10T15:51:04.708Z,11.74
2022-11-10T15:53:38.464Z,11.76
2022-11-10T15:56:07.680Z,11.74
2022-11-10T15:58:35.816Z,11.81
2022-11-10T16:01:04.343Z,11.72
2022-11-10T16:03:33.729Z,11.84
2022-11-10T16:06:01.670Z,11.82
2022-11-10T16:08:32.099Z,11.83
2022-11-10T16:11:01.261Z,11.81
2022-11-10T16:13:31.703Z,11.85
2022-11-10T16:16:01.159Z,11.87
2022-11-10T16:18:31.520Z,11.86
2022-11-10T16:21:00.940Z,11.89
2022-11-10T16:23:28.896Z,11.93
2022-11-10T16:25:58.111Z,11.90
2022-11-10T16:28:28.604Z,11.90
2022-11-10T16:30:56.626Z,11.97
2022-11-10T16:33:27.823Z,11.96
2022-11-10T16:35:56.631Z,11.96
2022-11-10T16:38:28.363Z,12.01
2022-11-10T16:40:59.119Z,11.98
2022-11-10T16:43:27.725Z,12.02
2022-11-10T16:45:58.562Z,12.07
2022-11-10T16:48:29.727Z,12.06
2022-11-10T16:50:59.720Z,12.04
2022-11-10T16:53:31.643Z,12.05
2022-11-10T16:55:59.716Z,12.04
2022-11-10T16:58:28.173Z,12.07
2022-11-10T17:01:00.190Z,12.07
2022-11-10T17:03:32.387Z,12.08
2022-11-10T17:06:00.744Z,12.10
2022-11-10T17:08:32.237Z,12.11
2022-11-10T17:11:01.652Z,12.12
2022-11-10T17:13:29.691Z,12.10
2022-11-10T17:16:04.395Z,12.09
2022-11-10T17:18:33.548Z,12.13
2022-11-10T17:21:03.343Z,12.16
2022-11-10T17:23:35.182Z,12.18
2022-11-10T17:26:03.487Z,12.15
2022-11-10T17:28:31.509Z,12.12
2022-11-10T17:30:59.512Z,12.16
2022-11-10T17:33:27.452Z,12.16
2022-11-10T17:35:57.619Z,12.16
2022-11-10T17:38:28.642Z,12.18
2022-11-10T17:40:58.167Z,12.08
2022-11-10T17:43:26.509Z,12.17
2022-11-10T17:45:54.558Z,12.21
2022-11-10T17:48:22.517Z,12.15
2022-11-10T17:50:50.467Z,12.16
2022-11-10T17:53:22.194Z,12.15
2022-11-10T17:55:50.681Z,12.23
2022-11-10T17:58:20.123Z,12.21
2022-11-10T18:00:48.382Z,12.21
2022-11-10T18:03:17.898Z,12.20
2022-11-10T18:05:46.079Z,12.21
2022-11-10T18:08:15.336Z,12.22
2022-11-10T18:10:44.112Z,12.16
2022-11-10T18:13:12.061Z,12.15
2022-11-10T18:15:44.300Z,12.13
2022-11-10T18:18:13.524Z,12.12
2022-11-10T18:20:41.573Z,12.11
2022-11-10T18:23:12.291Z,12.11
2022-11-10T18:25:40.511Z,12.11
2022-11-10T18:28:08.930Z,12.12
2022-11-10T18:30:38.865Z,12.10
2022-11-10T18:33:08.509Z,12.12
2022-11-10T18:35:39.062Z,12.07
2022-11-10T18:38:08.035Z,12.08
2022-11-10T18:40:36.032Z,12.10
2022-11-10T18:43:07.556Z,12.08
2022-11-10T18:45:36.916Z,12.12
2022-11-10T18:48:05.608Z,12.16
2022-11-10T18:50:38.518Z,12.16
2022-11-10T18:53:06.525Z,12.10
2022-11-10T18:55:34.458Z,12.11
2022-11-10T18:58:02.916Z,12.11
2022-11-10T19:00:30.920Z,12.10
2022-11-10T19:02:59.151Z,12.07
2022-11-10T19:05:27.103Z,12.10
2022-11-10T19:07:56.445Z,12.10
2022-11-10T19:10:24.393Z,12.09
2022-11-10T19:12:52.309Z,12.09
2022-11-10T19:15:20.312Z,12.08
2022-11-10T19:17:48.276Z,12.10
2022-11-10T19:20:16.567Z,12.08
2022-11-10T19:22:44.593Z,12.08
2022-11-10T19:25:13.891Z,12.08
2022-11-10T19:27:41.818Z,12.05
2022-11-10T19:30:11.026Z,12.03
2022-11-10T19:32:39.798Z,11.98
2022-11-10T19:35:08.188Z,12.01
2022-11-10T19:37:36.236Z,11.86
2022-11-10T19:40:04.551Z,11.97
2022-11-10T19:42:33.989Z,11.97
2022-11-10T19:45:02.372Z,11.97
2022-11-10T19:47:31.233Z,11.98
2022-11-10T19:49:59.195Z,11.97
2022-11-10T19:52:27.193Z,11.94
2022-11-10T19:54:55.117Z,11.98
2022-11-10T19:57:23.576Z,12.02
2022-11-10T19:59:52.960Z,12.04
2022-11-10T20:02:20.930Z,12.01
2022-11-10T20:05:06.519Z,12.01
2022-11-10T20:07:51.986Z,11.98
2022-11-10T20:10:19.982Z,11.93
2022-11-10T20:12:47.975Z,11.94
2022-11-10T20:15:17.673Z,11.98
2022-11-10T20:17:45.610Z,11.98
2022-11-10T20:20:13.740Z,11.97
2022-11-10T20:22:41.784Z,11.97
2022-11-10T20:25:10.243Z,12.02
2022-11-10T20:27:38.301Z,12.06
2022-11-10T20:30:07.519Z,12.03
2022-11-10T20:32:36.906Z,12.03
2022-11-10T20:35:05.543Z,11.99
2022-11-10T20:37:34.471Z,12.03
2022-11-10T20:40:07.449Z,12.04
2022-11-10T20:42:46.836Z,11.99
2022-11-10T20:45:14.951Z,11.99
2022-11-10T20:47:44.305Z,12.04
2022-11-10T20:50:17.150Z,12.01
2022-11-10T20:52:46.193Z,12.00
2022-11-10T20:55:18.295Z,11.90
2022-11-10T20:57:46.617Z,11.97
2022-11-10T21:00:15.707Z,12.04
2022-11-10T21:02:45.060Z,12.02
2022-11-10T21:05:13.049Z,11.98
2022-11-10T21:07:41.013Z,11.99
2022-11-10T21:10:09.735Z,12.01
2022-11-10T21:12:51.972Z,11.98
2022-11-10T21:17:56.612Z,11.91
2022-11-10T21:20:24.547Z,11.95
2022-11-10T21:22:52.860Z,11.93
2022-11-10T21:25:21.495Z,11.94
2022-11-10T21:27:49.458Z,11.93
2022-11-10T21:30:22.913Z,11.94
2022-11-10T21:32:51.108Z,11.82
2022-11-10T21:35:20.684Z,11.90
2022-11-10T21:37:48.704Z,11.88
2022-11-10T21:40:17.355Z,11.87
2022-11-10T21:42:45.316Z,11.87
2022-11-10T21:45:13.270Z,11.87
2022-11-10T21:47:41.277Z,11.88
2022-11-10T21:50:09.354Z,11.87
2022-11-10T21:52:38.751Z,11.79
2022-11-10T21:55:08.186Z,11.80
2022-11-10T21:57:36.140Z,11.76
2022-11-10T22:00:04.545Z,11.75
2022-11-10T22:02:32.498Z,11.78
2022-11-10T22:05:00.484Z,11.75
2022-11-10T22:07:28.494Z,11.72
2022-11-10T22:10:15.709Z,11.76
2022-11-10T22:13:01.085Z,11.75
2022-11-10T22:15:46.665Z,11.76
2022-11-10T22:18:34.284Z,11.73
2022-11-10T22:21:02.613Z,11.74
2022-11-10T22:23:47.947Z,11.69
2022-11-10T22:26:17.704Z,11.70
2022-11-10T22:28:45.952Z,11.68
2022-11-10T22:31:14.558Z,11.70
2022-11-10T22:33:44.186Z,11.68
2022-11-10T22:36:14.161Z,11.70
2022-11-10T22:38:42.958Z,11.68
2022-11-10T22:41:32.884Z,11.69
2022-11-10T22:44:06.323Z,11.69
2022-11-10T22:46:36.207Z,11.66
2022-11-10T22:49:07.251Z,11.62
2022-11-10T22:51:36.325Z,11.63
2022-11-10T22:54:05.512Z,11.56
2022-11-10T22:56:34.306Z,11.49
2022-11-10T22:59:03.791Z,11.45
2022-11-10T23:01:32.276Z,11.47
2022-11-10T23:04:01.001Z,11.46
2022-11-10T23:06:29.573Z,11.45
2022-11-10T23:08:58.462Z,11.45
2022-11-10T23:11:28.441Z,11.40
2022-11-10T23:13:56.597Z,11.37
2022-11-10T23:16:27.468Z,11.30
2022-11-10T23:18:56.865Z,11.28
2022-11-10T23:21:27.517Z,11.28
2022-11-10T23:23:55.821Z,11.22
2022-11-10T23:26:25.405Z,11.23
2022-11-10T23:28:54.229Z,11.22
2022-11-10T23:31:23.693Z,11.10
2022-11-10T23:33:55.429Z,11.18
2022-11-10T23:36:25.947Z,11.13
2022-11-10T23:38:55.676Z,11.11
2022-11-10T23:41:25.962Z,11.13
2022-11-10T23:43:54.146Z,11.12
2022-11-10T23:46:22.165Z,11.12
2022-11-10T23:48:50.248Z,11.05
2022-11-10T23:51:19.548Z,11.08
2022-11-10T23:53:47.628Z,11.09
2022-11-10T23:56:15.615Z,11.12
2022-11-10T23:58:43.550Z,11.05
